Terminal Aerodrome Forecast
Issued by NWS Cleveland, OH

Home | Current Version | Previous Version | Text Only | Print | Product List | Glossary On
Versions: 1 2 3 4 5 6 7 8 9 10 11 12 13 14 15 16 17 18 19
000
FTUS41 KCLE 141857 AAA
TAFERI
TAF AMD
KERI 141857Z 1419/1518 VRB04KT P6SM BKN040
     FM150000 13004KT P6SM SCT250
     FM151000 13010KT P6SM BKN150
     FM151700 16010KT P6SM OVC070=

USA.gov is the U.S. government's official web portal to all federal, state and local government web resources and services.